Asert, OR

4:37 PM PST on January 31, 2015 (GMT -0800)
Hogan and Roberts | Change Station
CLOSE
Current Station
Personal Weather Station
Location: Gresham, OR
Elevation: 384 ft
Nearby Weather Stations

Elev 384 ft 45.49 °N, 122.42 °W | Updated 46 seconds ago

Partly Cloudy
Partly Cloudy
43.5 °F
Feels Like 40 °F
N
6.3
Wind Variable Wind from NE
Gusts 17.4 mph

Today
High -- | Low -- °F
--% Chance of Precip.
Yesterday
High -- | Low -- °F
Precip. -- in
7:31 AM 5:14 PM
Waxing Gibbous, 92% visible
Pressure 30.13 in
Visibility 10.0 miles
Clouds Clear
Windchill 40 °F
Dew Point 25 °F
Humidity 47%
Rainfall 0.00 in
Snow Depth Not available.
UV 1 out of 12
Pollen 3.20 out of 12
Air Quality Not available.
Flu Activity Not available.
METAR KTTD 312353Z 09020G30KT 10SM CLR 07/01 A3013 RMK AO2 PK WND 09030/2346 SLP203 T00720006 10089 20067 55014

More Conditions Fewer Conditions

Pressure 30.13 in
Visibility 10.0 miles
Clouds Clear
Windchill 40 °F
Dew Point 25 °F
Humidity 47%
Rainfall 0.00 in
Snow Depth Not available.
UV 1 out of 12
Pollen 3.20 out of 12
Air Quality Not available.
Flu Activity Not available.
METAR KTTD 312353Z 09020G30KT 10SM CLR 07/01 A3013 RMK AO2 PK WND 09030/2346 SLP203 T00720006 10089 20067 55014

More Conditions Fewer Conditions

10-Day Weather Forecast

Almanac

Astronomy

Jan. 31, 2015 Rise Set
Actual Time
Civil Twilight
Nautical Twilight
Astronomical Twilight
Moon
Length of Visible Light
Length of Day
Tomorrow will be .
, % of the Moon is Illuminated

Today's Extremes

State Highs State Lows

Community

WunderPhotos

Upload Photos

1,792,262 photos uploaded!

WunderBlogs® & News

Nearby

Air Quality

  Air Quality AQ Index Pollutant
Not available.

Snow Depth

Station Depth Elevation

Earthquake Activity

City Distance Mag. Time & Date
Minimum magnitude displayed is 2.5.

Coastal Water Temperatures

Place Temperature

Nearby Weather Stations